createdAt,value
2017-05-12T00:00:08.462Z,16.29
2017-05-12T00:01:08.995Z,16.14
2017-05-12T00:02:09.003Z,16.23
2017-05-12T00:03:08.465Z,16.37
2017-05-12T00:04:08.900Z,16.39
2017-05-12T00:05:07.479Z,16.48
2017-05-12T00:06:08.951Z,16.41
2017-05-12T00:07:07.642Z,16.41
2017-05-12T00:08:07.313Z,16.33
2017-05-12T00:09:07.909Z,16.28
2017-05-12T00:10:08.334Z,16.30
2017-05-12T00:11:08.758Z,16.30
2017-05-12T00:12:08.304Z,16.43
2017-05-12T00:13:08.774Z,16.47
2017-05-12T00:14:08.218Z,16.43
2017-05-12T00:15:08.669Z,16.42
2017-05-12T00:16:08.122Z,16.26
2017-05-12T00:17:08.653Z,16.32
2017-05-12T00:18:08.117Z,16.35
2017-05-12T00:19:08.533Z,16.37
2017-05-12T00:20:08.971Z,16.47
2017-05-12T00:21:07.463Z,16.36
2017-05-12T00:22:08.083Z,16.32
2017-05-12T00:23:08.589Z,16.29
2017-05-12T00:24:07.195Z,16.34
2017-05-12T00:25:07.801Z,16.15
2017-05-12T00:26:07.360Z,16.03
2017-05-12T00:27:08.808Z,16.17
2017-05-12T00:28:08.221Z,16.10
2017-05-12T00:29:07.770Z,15.82
2017-05-12T00:30:08.242Z,15.92
2017-05-12T00:31:08.692Z,16.01
2017-05-12T00:32:08.125Z,17.14
2017-05-12T00:33:08.601Z,16.65
2017-05-12T00:34:08.050Z,16.45
2017-05-12T00:35:08.532Z,16.08
2017-05-12T00:36:08.960Z,16.03
2017-05-12T00:37:07.511Z,16.05
2017-05-12T00:38:09.005Z,16.10
2017-05-12T00:39:08.511Z,16.34
2017-05-12T00:40:08.983Z,19.70
2017-05-12T00:41:08.447Z,21.88
2017-05-12T00:42:08.061Z,23.15
2017-05-12T00:43:07.692Z,23.94
2017-05-12T00:44:07.345Z,24.43
2017-05-12T00:45:07.903Z,24.77
2017-05-12T00:46:08.365Z,25.01
2017-05-12T00:47:08.221Z,25.12
2017-05-12T00:48:08.670Z,25.23
2017-05-12T00:49:08.154Z,25.30
2017-05-12T00:50:08.602Z,25.30
2017-05-12T00:51:07.169Z,25.37
2017-05-12T00:52:08.875Z,25.42
2017-05-12T00:53:08.342Z,24.68
2017-05-12T00:54:08.866Z,25.37
2017-05-12T00:55:08.259Z,26.14
2017-05-12T00:56:07.895Z,26.58
2017-05-12T00:57:08.386Z,26.95
2017-05-12T00:58:08.843Z,27.22
2017-05-12T00:59:08.285Z,27.42
2017-05-12T01:00:08.735Z,27.58
2017-05-12T01:01:08.238Z,27.67
2017-05-12T01:02:08.689Z,27.72
2017-05-12T01:03:07.818Z,27.76
2017-05-12T01:04:07.385Z,27.84
2017-05-12T01:05:08.848Z,27.90
2017-05-12T01:06:08.295Z,27.94
2017-05-12T01:07:07.885Z,27.98
2017-05-12T01:08:08.370Z,28.02
2017-05-12T01:09:08.856Z,28.06
2017-05-12T01:10:08.347Z,28.15
2017-05-12T01:11:08.790Z,28.82
2017-05-12T01:12:08.275Z,30.18
2017-05-12T01:13:07.826Z,30.23
2017-05-12T01:14:08.341Z,30.15
2017-05-12T01:15:08.786Z,22.51
2017-05-12T01:16:08.288Z,19.35
2017-05-12T01:17:08.116Z,18.39
2017-05-12T01:18:07.800Z,17.88
2017-05-12T01:19:08.526Z,17.55
2017-05-12T01:20:08.189Z,17.50
2017-05-12T01:21:08.660Z,17.20
2017-05-12T01:22:07.265Z,16.93
2017-05-12T01:23:08.778Z,17.01
2017-05-12T01:24:08.247Z,16.91
2017-05-12T01:25:08.760Z,16.87
2017-05-12T01:26:08.469Z,16.69
2017-05-12T01:27:08.109Z,16.34
2017-05-12T01:28:07.663Z,16.55
2017-05-12T01:29:08.135Z,16.55
2017-05-12T01:30:08.620Z,16.62
2017-05-12T01:31:07.309Z,16.45
2017-05-12T01:32:07.399Z,16.38
2017-05-12T01:33:08.098Z,16.41
2017-05-12T01:34:08.619Z,16.27
2017-05-12T01:35:08.055Z,16.23
2017-05-12T01:36:08.515Z,16.38
2017-05-12T01:37:08.956Z,16.39
2017-05-12T01:38:08.384Z,16.45
2017-05-12T01:39:08.028Z,16.44
2017-05-12T01:40:07.197Z,16.45
2017-05-12T01:41:08.666Z,16.44
2017-05-12T01:42:07.278Z,16.54
2017-05-12T01:43:08.817Z,16.42
2017-05-12T01:44:07.398Z,16.39
2017-05-12T01:45:08.857Z,16.37
2017-05-12T01:46:07.475Z,16.38
2017-05-12T01:47:08.964Z,16.38
2017-05-12T01:48:08.404Z,16.37
2017-05-12T01:49:08.870Z,16.49
2017-05-12T01:50:07.460Z,16.49
2017-05-12T01:51:08.928Z,16.43
2017-05-12T01:52:07.443Z,16.38
2017-05-12T01:53:08.933Z,16.40
2017-05-12T01:54:08.374Z,16.49
2017-05-12T01:55:08.817Z,16.55
2017-05-12T01:56:08.262Z,16.55
2017-05-12T01:57:08.703Z,16.49
2017-05-12T01:58:08.184Z,16.35
2017-05-12T01:59:08.642Z,16.40
2017-05-12T02:00:08.083Z,16.38
2017-05-12T02:01:08.541Z,16.43
2017-05-12T02:02:09.004Z,16.29
2017-05-12T02:03:07.504Z,16.33
2017-05-12T02:04:08.623Z,16.32
2017-05-12T02:05:08.055Z,16.44
2017-05-12T02:06:08.934Z,16.45
2017-05-12T02:07:08.392Z,16.41
2017-05-12T02:08:08.025Z,16.48
2017-05-12T02:09:08.564Z,16.44
2017-05-12T02:10:08.306Z,16.51
2017-05-12T02:11:07.941Z,16.48
2017-05-12T02:12:08.351Z,16.50
2017-05-12T02:13:07.950Z,16.35
2017-05-12T02:14:08.558Z,16.37
2017-05-12T02:15:09.037Z,16.40
2017-05-12T02:16:08.476Z,16.45
2017-05-12T02:17:08.999Z,16.46
2017-05-12T02:18:08.490Z,16.54
2017-05-12T02:19:08.975Z,16.51
2017-05-12T02:20:07.668Z,16.56
2017-05-12T02:21:08.181Z,16.57
2017-05-12T02:22:08.625Z,16.64
2017-05-12T02:23:07.212Z,16.57
2017-05-12T02:24:08.676Z,16.65
2017-05-12T02:25:08.104Z,16.61
2017-05-12T02:26:08.564Z,16.57
2017-05-12T02:27:08.224Z,16.56
2017-05-12T02:28:08.697Z,16.41
2017-05-12T02:29:08.183Z,16.46
2017-05-12T02:30:08.643Z,16.62
2017-05-12T02:31:08.105Z,16.57
2017-05-12T02:32:08.554Z,19.22
2017-05-12T02:33:09.026Z,22.45
2017-05-12T02:34:08.514Z,24.23
2017-05-12T02:35:08.946Z,25.45
2017-05-12T02:36:08.380Z,26.33
2017-05-12T02:37:08.813Z,26.81
2017-05-12T02:38:08.272Z,27.05
2017-05-12T02:39:08.746Z,27.29
2017-05-12T02:40:08.214Z,27.55
2017-05-12T02:41:08.681Z,27.71
2017-05-12T02:42:08.151Z,27.84
2017-05-12T02:43:08.645Z,27.93
2017-05-12T02:44:08.113Z,27.93
2017-05-12T02:45:07.781Z,27.15
2017-05-12T02:46:07.688Z,24.57
2017-05-12T02:47:08.136Z,22.93
2017-05-12T02:48:08.559Z,22.06
2017-05-12T02:49:09.044Z,21.03
2017-05-12T02:50:08.580Z,19.66
2017-05-12T02:51:07.161Z,18.99
2017-05-12T02:53:09.124Z,18.30
2017-05-12T02:54:07.709Z,17.32
2017-05-12T02:55:08.207Z,16.84
2017-05-12T02:56:08.729Z,16.58
2017-05-12T02:57:08.150Z,16.61
2017-05-12T02:58:07.664Z,16.72
2017-05-12T02:59:08.158Z,16.66
2017-05-12T03:00:08.644Z,16.57
2017-05-12T03:01:08.110Z,16.39
2017-05-12T03:02:07.534Z,16.45
2017-05-12T03:03:07.812Z,16.41
2017-05-12T03:04:08.249Z,16.48
2017-05-12T03:05:08.732Z,16.35
2017-05-12T03:06:08.204Z,16.30
2017-05-12T03:07:08.632Z,16.29
2017-05-12T03:08:07.283Z,16.31
2017-05-12T03:09:08.745Z,16.35
2017-05-12T03:10:08.247Z,16.33
2017-05-12T03:11:07.834Z,16.29
2017-05-12T03:12:08.295Z,16.21
2017-05-12T03:13:07.948Z,16.23
2017-05-12T03:14:08.440Z,16.27
2017-05-12T03:15:08.918Z,16.28
2017-05-12T03:16:08.382Z,16.37
2017-05-12T03:17:08.032Z,16.31
2017-05-12T03:18:08.480Z,16.32
2017-05-12T03:19:08.980Z,16.24
2017-05-12T03:20:07.571Z,16.19
2017-05-12T03:21:08.249Z,16.19
2017-05-12T03:22:07.992Z,16.04
2017-05-12T03:23:08.444Z,16.12
2017-05-12T03:24:08.101Z,16.23
2017-05-12T03:25:08.540Z,16.25
2017-05-12T03:26:08.997Z,16.42
2017-05-12T03:27:08.453Z,16.51
2017-05-12T03:28:08.887Z,16.51
2017-05-12T03:29:07.458Z,16.58
2017-05-12T03:30:08.940Z,16.68
2017-05-12T03:31:07.492Z,16.70
2017-05-12T03:32:08.140Z,16.79
2017-05-12T03:33:07.684Z,16.69
2017-05-12T03:34:07.314Z,16.65
2017-05-12T03:35:07.953Z,16.73
2017-05-12T03:36:07.536Z,16.63
2017-05-12T03:37:08.172Z,16.68
2017-05-12T03:38:07.879Z,16.79
2017-05-12T03:39:07.562Z,16.72
2017-05-12T03:40:07.316Z,16.86
2017-05-12T03:41:07.960Z,16.71
2017-05-12T03:42:07.558Z,16.47
2017-05-12T03:43:08.293Z,16.40
2017-05-12T03:44:07.979Z,16.38
2017-05-12T03:45:07.553Z,16.38
2017-05-12T03:46:07.218Z,16.38
2017-05-12T03:47:07.831Z,16.24
2017-05-12T03:48:07.342Z,16.17
2017-05-12T03:49:08.046Z,16.02
2017-05-12T03:50:07.547Z,16.04
2017-05-12T03:51:08.168Z,16.15
2017-05-12T03:52:08.073Z,16.04
2017-05-12T03:53:07.622Z,16.10
2017-05-12T03:54:07.241Z,16.20
2017-05-12T03:55:07.760Z,16.09
2017-05-12T03:56:07.280Z,16.14
2017-05-12T03:57:07.967Z,16.02
2017-05-12T03:58:07.468Z,15.97
2017-05-12T03:59:08.081Z,16.09
2017-05-12T04:00:07.645Z,16.10
2017-05-12T04:01:07.112Z,16.19
2017-05-12T04:02:08.034Z,16.10
2017-05-12T04:03:07.688Z,16.21
2017-05-12T04:04:07.232Z,16.03
2017-05-12T04:05:07.928Z,15.93
2017-05-12T04:06:07.661Z,16.04
2017-05-12T04:07:07.136Z,16.02
2017-05-12T04:08:07.814Z,15.79
2017-05-12T04:09:07.333Z,15.79
2017-05-12T04:10:08.029Z,15.78
2017-05-12T04:11:07.550Z,15.90
2017-05-12T04:12:08.111Z,15.80
2017-05-12T04:13:07.706Z,15.67
2017-05-12T04:14:07.312Z,15.73
2017-05-12T04:15:07.945Z,15.49
2017-05-12T04:16:07.600Z,15.61
2017-05-12T04:17:07.281Z,15.69
2017-05-12T04:18:07.994Z,15.54
2017-05-12T04:19:07.646Z,15.62
2017-05-12T04:20:07.583Z,15.59
2017-05-12T04:21:08.308Z,15.69
2017-05-12T04:22:07.910Z,15.71
2017-05-12T04:23:07.387Z,15.65
2017-05-12T04:24:08.023Z,15.82
2017-05-12T04:25:10.097Z,15.76
2017-05-12T04:26:07.367Z,15.74
2017-05-12T04:27:07.985Z,15.69
2017-05-12T04:28:07.611Z,15.79
2017-05-12T04:29:07.207Z,15.57
2017-05-12T04:30:07.774Z,15.54
2017-05-12T04:31:07.584Z,15.47
2017-05-12T04:32:07.158Z,15.63
2017-05-12T04:33:07.747Z,15.52
2017-05-12T04:34:07.419Z,15.37
2017-05-12T04:35:08.027Z,15.44
2017-05-12T04:36:07.667Z,15.52
2017-05-12T04:37:07.272Z,15.65
2017-05-12T04:38:07.966Z,15.47
2017-05-12T04:39:07.512Z,15.61
2017-05-12T04:40:08.092Z,15.61
2017-05-12T04:41:07.745Z,15.57
2017-05-12T04:42:07.341Z,15.57
2017-05-12T04:43:07.943Z,15.59
2017-05-12T04:44:08.372Z,15.44
2017-05-12T04:45:07.986Z,15.46
2017-05-12T04:46:07.736Z,15.51
2017-05-12T04:47:07.332Z,15.47
2017-05-12T04:48:08.164Z,15.42
2017-05-12T04:49:07.762Z,15.52
2017-05-12T04:50:07.223Z,15.63
2017-05-12T04:51:07.878Z,15.66
2017-05-12T04:52:07.423Z,15.72
2017-05-12T04:53:08.030Z,15.59
2017-05-12T04:54:08.510Z,15.60
2017-05-12T04:55:08.151Z,15.62
2017-05-12T04:56:07.660Z,15.55
2017-05-12T04:57:07.436Z,15.61
2017-05-12T04:58:08.004Z,15.75
2017-05-12T04:59:07.764Z,15.90
2017-05-12T05:00:08.303Z,16.12
2017-05-12T05:01:07.486Z,16.13
2017-05-12T05:02:08.152Z,16.04
2017-05-12T05:03:07.799Z,16.89
2017-05-12T05:04:07.592Z,17.61
2017-05-12T05:05:07.180Z,15.70
2017-05-12T05:06:07.820Z,17.58
2017-05-12T05:07:07.401Z,15.88
2017-05-12T05:08:07.952Z,15.71
2017-05-12T05:09:07.664Z,15.35
2017-05-12T05:10:07.221Z,15.44
2017-05-12T05:11:07.926Z,15.34
2017-05-12T05:12:07.516Z,15.42
2017-05-12T05:13:08.090Z,15.53
2017-05-12T05:14:07.591Z,15.60
2017-05-12T05:15:07.212Z,15.51
2017-05-12T05:16:07.840Z,15.56
2017-05-12T05:17:07.525Z,15.51
2017-05-12T05:18:08.101Z,15.45
2017-05-12T05:19:07.626Z,15.46
2017-05-12T05:20:07.334Z,15.54
2017-05-12T05:21:39.028Z,15.54
2017-05-12T05:22:07.614Z,15.64
2017-05-12T05:23:07.230Z,15.58
2017-05-12T05:24:07.816Z,15.61
2017-05-12T05:25:07.354Z,15.39
2017-05-12T05:26:07.602Z,15.29
2017-05-12T05:27:26.821Z,15.36
2017-05-12T05:28:17.302Z,15.50
2017-05-12T05:29:07.905Z,15.14
2017-05-12T05:30:07.444Z,15.44
2017-05-12T05:31:08.098Z,15.15
2017-05-12T05:32:08.534Z,15.08
2017-05-12T05:33:08.161Z,15.32
2017-05-12T05:34:07.763Z,15.35
2017-05-12T05:35:08.197Z,15.18
2017-05-12T05:36:07.818Z,14.96
2017-05-12T05:37:07.410Z,15.12
2017-05-12T05:38:08.092Z,15.09
2017-05-12T05:39:07.714Z,15.00
2017-05-12T05:40:07.293Z,14.89
2017-05-12T05:41:07.882Z,15.14
2017-05-12T05:42:07.693Z,15.26
2017-05-12T05:43:07.294Z,15.32
2017-05-12T05:44:08.064Z,15.39
2017-05-12T05:45:07.633Z,15.40
2017-05-12T05:46:07.161Z,15.44
2017-05-12T05:47:07.800Z,15.38
2017-05-12T05:48:07.392Z,15.49
2017-05-12T05:49:08.154Z,15.56
2017-05-12T05:50:07.774Z,15.61
2017-05-12T05:51:07.309Z,15.39
2017-05-12T05:52:07.922Z,15.33
2017-05-12T05:53:07.551Z,15.05
2017-05-12T05:54:08.171Z,15.06
2017-05-12T05:55:07.848Z,15.17
2017-05-12T05:56:07.471Z,15.06
2017-05-12T05:57:07.955Z,15.30
2017-05-12T05:58:07.324Z,15.23
2017-05-12T05:59:07.884Z,15.28
2017-05-12T06:00:07.493Z,15.14
2017-05-12T06:01:08.115Z,15.36
2017-05-12T06:02:07.772Z,15.49
2017-05-12T06:03:07.500Z,15.40
2017-05-12T06:04:08.134Z,15.33
2017-05-12T06:05:07.708Z,15.53
2017-05-12T06:06:07.289Z,15.44
2017-05-12T06:07:07.951Z,15.46
2017-05-12T06:08:07.492Z,15.53
2017-05-12T06:09:08.125Z,15.43
2017-05-12T06:10:07.692Z,15.41
2017-05-12T06:11:07.319Z,15.37
2017-05-12T06:12:07.843Z,15.04
2017-05-12T06:13:07.841Z,15.23
2017-05-12T06:14:07.446Z,15.19
2017-05-12T06:15:08.419Z,15.17
2017-05-12T06:16:08.079Z,15.20
2017-05-12T06:17:07.830Z,15.25
2017-05-12T06:18:08.478Z,15.37
2017-05-12T06:19:08.067Z,15.35
2017-05-12T06:20:07.622Z,15.29
2017-05-12T06:21:07.184Z,15.15
2017-05-12T06:22:07.793Z,15.25
2017-05-12T06:23:07.356Z,15.17
2017-05-12T06:24:07.944Z,15.26
2017-05-12T06:25:07.628Z,15.31
2017-05-12T06:26:07.147Z,14.92
2017-05-12T06:27:07.761Z,15.08
2017-05-12T06:28:07.319Z,15.15
2017-05-12T06:29:07.953Z,15.27
2017-05-12T06:30:07.525Z,15.40
2017-05-12T06:31:08.161Z,15.25
2017-05-12T06:32:07.892Z,15.40
2017-05-12T06:33:07.557Z,15.48
2017-05-12T06:34:08.245Z,15.38
2017-05-12T06:35:07.864Z,15.54
2017-05-12T06:36:07.552Z,15.51
2017-05-12T06:37:08.128Z,15.53
2017-05-12T06:38:07.695Z,15.44
2017-05-12T06:39:07.295Z,15.45
2017-05-12T06:40:08.093Z,15.54
2017-05-12T06:41:07.668Z,15.56
2017-05-12T06:42:07.357Z,15.67
2017-05-12T06:43:08.075Z,15.53
2017-05-12T06:44:08.276Z,15.56
2017-05-12T06:45:08.882Z,15.57
2017-05-12T06:46:07.451Z,15.35
2017-05-12T06:47:08.173Z,15.31
2017-05-12T06:48:07.762Z,15.39
2017-05-12T06:49:07.318Z,15.52
2017-05-12T06:50:07.908Z,15.53
2017-05-12T06:51:07.483Z,15.62
2017-05-12T06:52:07.977Z,15.62
2017-05-12T06:53:07.293Z,15.49
2017-05-12T06:54:08.505Z,15.70
2017-05-12T06:55:08.286Z,15.80
2017-05-12T06:56:07.884Z,15.70
2017-05-12T06:57:07.514Z,15.66
2017-05-12T06:58:08.130Z,15.69
2017-05-12T06:59:07.701Z,15.57
2017-05-12T07:00:07.933Z,15.65
2017-05-12T07:01:08.404Z,15.72
2017-05-12T07:02:08.874Z,15.62
2017-05-12T07:03:07.439Z,15.32
2017-05-12T07:04:08.918Z,15.18
2017-05-12T07:05:08.384Z,15.28
2017-05-12T07:06:08.834Z,15.23
2017-05-12T07:07:08.268Z,15.29
2017-05-12T07:08:07.924Z,15.41
2017-05-12T07:09:07.558Z,15.58
2017-05-12T07:10:08.658Z,15.43
2017-05-12T07:11:07.235Z,15.43
2017-05-12T07:12:08.661Z,15.27
2017-05-12T07:13:08.121Z,15.25
2017-05-12T07:14:07.744Z,15.39
2017-05-12T07:15:08.174Z,15.31
2017-05-12T07:16:07.802Z,15.23
2017-05-12T07:17:08.345Z,15.39
2017-05-12T07:18:08.946Z,15.51
2017-05-12T07:19:07.845Z,15.51
2017-05-12T07:20:07.541Z,15.43
2017-05-12T07:21:07.333Z,15.34
2017-05-12T07:22:07.923Z,15.49
2017-05-12T07:23:07.459Z,15.44
2017-05-12T07:24:08.172Z,15.20
2017-05-12T07:25:08.673Z,15.32
2017-05-12T07:26:08.126Z,15.27
2017-05-12T07:27:07.619Z,15.39
2017-05-12T07:28:07.175Z,15.54
2017-05-12T07:29:07.797Z,15.54
2017-05-12T07:30:07.396Z,15.65
2017-05-12T07:31:08.847Z,15.56
2017-05-12T07:32:08.312Z,15.59
2017-05-12T07:33:08.797Z,15.68
2017-05-12T07:34:08.260Z,15.83
2017-05-12T07:35:07.879Z,15.99
2017-05-12T07:36:07.441Z,15.83
2017-05-12T07:37:08.113Z,15.96
2017-05-12T07:38:08.578Z,16.14
2017-05-12T07:39:08.169Z,16.23
2017-05-12T07:40:08.303Z,16.16
2017-05-12T07:41:08.757Z,16.25
2017-05-12T07:42:08.225Z,16.49
2017-05-12T07:43:08.685Z,16.55
2017-05-12T07:44:08.155Z,16.67
2017-05-12T07:45:08.599Z,16.46
2017-05-12T07:46:08.036Z,16.48
2017-05-12T07:47:08.542Z,16.66
2017-05-12T07:48:08.083Z,16.65
2017-05-12T07:49:07.592Z,16.70
2017-05-12T07:50:07.198Z,16.88
2017-05-12T07:51:08.665Z,16.97
2017-05-12T07:52:08.749Z,16.82
2017-05-12T07:53:08.325Z,16.84
2017-05-12T07:54:08.837Z,16.85
2017-05-12T07:55:07.375Z,16.90
2017-05-12T07:56:08.800Z,16.67
2017-05-12T07:57:08.252Z,16.77
2017-05-12T07:58:07.836Z,16.88
2017-05-12T07:59:08.293Z,16.94
2017-05-12T08:00:07.931Z,16.94
2017-05-12T08:01:07.567Z,16.91
2017-05-12T08:02:07.318Z,16.74
2017-05-12T08:03:08.809Z,16.65
2017-05-12T08:04:07.509Z,16.71
2017-05-12T08:05:08.117Z,16.78
2017-05-12T08:06:07.733Z,16.83
2017-05-12T08:07:07.333Z,16.90
2017-05-12T08:08:08.297Z,16.93
2017-05-12T08:09:07.911Z,16.73
2017-05-12T08:10:07.437Z,16.71
2017-05-12T08:11:08.060Z,16.75
2017-05-12T08:12:07.848Z,16.80
2017-05-12T08:13:07.416Z,16.65
2017-05-12T08:14:08.008Z,16.74
2017-05-12T08:15:08.120Z,16.69
2017-05-12T08:16:07.795Z,16.71
2017-05-12T08:17:07.686Z,16.66
2017-05-12T08:18:07.242Z,16.76
2017-05-12T08:19:07.853Z,16.63
2017-05-12T08:20:07.478Z,16.76
2017-05-12T08:21:08.072Z,16.77
2017-05-12T08:22:07.670Z,16.90
2017-05-12T08:23:07.543Z,16.96
2017-05-12T08:24:07.184Z,16.89
2017-05-12T08:25:07.801Z,16.89
2017-05-12T08:26:07.603Z,16.78
2017-05-12T08:27:07.236Z,16.79
2017-05-12T08:28:08.161Z,16.84
2017-05-12T08:29:07.796Z,16.91
2017-05-12T08:30:07.406Z,16.91
2017-05-12T08:31:08.081Z,16.91
2017-05-12T08:32:08.538Z,16.97
2017-05-12T08:33:08.193Z,17.05
2017-05-12T08:34:07.885Z,17.04
2017-05-12T08:35:07.519Z,17.03
2017-05-12T08:36:08.205Z,17.07
2017-05-12T08:37:08.435Z,17.01
2017-05-12T08:38:07.215Z,16.96
2017-05-12T08:39:07.873Z,17.12
2017-05-12T08:40:07.799Z,17.22
2017-05-12T08:41:07.376Z,17.24
2017-05-12T08:42:08.022Z,17.22
2017-05-12T08:43:07.667Z,17.15
2017-05-12T08:44:07.412Z,17.25
2017-05-12T08:45:08.048Z,17.32
2017-05-12T08:46:07.619Z,17.40
2017-05-12T08:47:07.149Z,17.46
2017-05-12T08:48:07.818Z,17.54
2017-05-12T08:49:07.447Z,17.57
2017-05-12T08:50:07.298Z,17.64
2017-05-12T08:51:08.121Z,17.66
2017-05-12T08:52:08.583Z,17.62
2017-05-12T08:53:07.357Z,17.61
2017-05-12T08:54:08.004Z,17.56
2017-05-12T08:55:07.620Z,17.54
2017-05-12T08:56:07.338Z,17.58
2017-05-12T08:57:08.012Z,17.61
2017-05-12T08:58:07.633Z,17.58
2017-05-12T08:59:08.331Z,17.61
2017-05-12T09:00:21.505Z,17.64
2017-05-12T09:01:08.126Z,17.61
2017-05-12T09:02:07.767Z,17.66
2017-05-12T09:03:07.410Z,17.68
2017-05-12T09:04:08.048Z,17.75
2017-05-12T09:05:07.679Z,17.79
2017-05-12T09:06:07.186Z,17.76
2017-05-12T09:07:07.820Z,17.70
2017-05-12T09:08:07.382Z,17.67
2017-05-12T09:09:08.002Z,17.72
2017-05-12T09:10:07.535Z,17.69
2017-05-12T09:11:08.193Z,17.68
2017-05-12T09:12:07.819Z,17.67
2017-05-12T09:13:07.346Z,17.77
2017-05-12T09:14:07.674Z,17.69
2017-05-12T09:15:07.516Z,17.66
2017-05-12T09:16:07.193Z,17.68
2017-05-12T09:17:07.936Z,17.78
2017-05-12T09:18:07.540Z,17.92
2017-05-12T09:19:08.357Z,18.10
2017-05-12T09:20:07.932Z,18.20
2017-05-12T09:21:07.523Z,18.40
2017-05-12T09:22:08.156Z,18.55
2017-05-12T09:23:07.725Z,18.58
2017-05-12T09:24:07.334Z,18.39
2017-05-12T09:25:07.990Z,18.49
2017-05-12T09:26:07.500Z,18.61
2017-05-12T09:27:08.107Z,18.65
2017-05-12T09:28:07.703Z,18.74
2017-05-12T09:29:07.339Z,18.68
2017-05-12T09:30:08.041Z,18.50
2017-05-12T09:31:07.660Z,18.32
2017-05-12T09:32:07.899Z,18.26
2017-05-12T09:33:07.538Z,18.21
2017-05-12T09:34:08.165Z,18.11
2017-05-12T09:35:07.827Z,18.01
2017-05-12T09:36:07.373Z,17.90
2017-05-12T09:37:08.059Z,17.96
2017-05-12T09:38:07.693Z,17.95
2017-05-12T09:39:07.380Z,18.05
2017-05-12T09:40:08.017Z,18.21
2017-05-12T09:41:07.644Z,18.38
2017-05-12T09:42:07.192Z,18.49
2017-05-12T09:43:07.810Z,18.62
2017-05-12T09:44:07.402Z,18.80
2017-05-12T09:45:08.037Z,19.00
2017-05-12T09:46:07.597Z,19.06
2017-05-12T09:47:07.193Z,18.99
2017-05-12T09:48:07.853Z,19.00
2017-05-12T09:49:07.606Z,18.94
2017-05-12T09:50:07.408Z,18.81
2017-05-12T09:51:07.979Z,18.76
2017-05-12T09:52:08.071Z,18.77
2017-05-12T09:53:07.667Z,18.84
2017-05-12T09:54:07.260Z,18.86
2017-05-12T09:55:07.876Z,18.79
2017-05-12T09:56:07.601Z,18.78
2017-05-12T09:57:07.214Z,18.83
2017-05-12T09:58:07.895Z,18.82
2017-05-12T09:59:07.553Z,18.95
2017-05-12T10:00:08.191Z,18.98
2017-05-12T10:01:07.811Z,19.01
2017-05-12T10:02:07.334Z,19.06
2017-05-12T10:03:08.116Z,19.02
2017-05-12T10:04:07.727Z,18.96
2017-05-12T10:05:07.352Z,18.91
2017-05-12T10:06:08.288Z,18.96
2017-05-12T10:07:07.940Z,19.02
2017-05-12T10:08:07.483Z,19.03
2017-05-12T10:09:08.117Z,19.09
2017-05-12T10:10:07.725Z,19.20
2017-05-12T10:11:07.518Z,19.24
2017-05-12T10:12:08.167Z,19.12
2017-05-12T10:13:07.821Z,19.06
2017-05-12T10:14:07.469Z,19.19
2017-05-12T10:15:08.118Z,19.22
2017-05-12T10:16:07.700Z,19.06
2017-05-12T10:17:07.589Z,18.97
2017-05-12T10:18:07.428Z,19.06
2017-05-12T10:19:08.185Z,19.15
2017-05-12T10:20:07.831Z,19.15
2017-05-12T10:21:07.476Z,19.05
2017-05-12T10:22:08.080Z,18.89
2017-05-12T10:23:07.842Z,18.83
2017-05-12T10:24:08.456Z,18.85
2017-05-12T10:25:08.133Z,18.75
2017-05-12T10:26:07.732Z,18.64
2017-05-12T10:27:07.311Z,18.68
2017-05-12T10:28:08.005Z,18.77
2017-05-12T10:29:08.041Z,18.86
2017-05-12T10:30:07.710Z,19.00
2017-05-12T10:31:07.321Z,19.19
2017-05-12T10:32:07.952Z,19.22
2017-05-12T10:33:07.531Z,19.19
2017-05-12T10:34:08.986Z,19.07
2017-05-12T10:35:07.770Z,19.06
2017-05-12T10:36:07.390Z,19.05
2017-05-12T10:37:07.950Z,19.14
2017-05-12T10:38:07.570Z,19.30
2017-05-12T10:39:07.157Z,19.34
2017-05-12T10:40:07.757Z,19.30
2017-05-12T10:41:07.501Z,19.37
2017-05-12T10:42:08.179Z,19.36
2017-05-12T10:43:07.769Z,19.40
2017-05-12T10:44:07.402Z,19.39
2017-05-12T10:45:08.022Z,19.43
2017-05-12T10:46:07.730Z,19.56
2017-05-12T10:47:07.326Z,19.67
2017-05-12T10:48:08.180Z,19.65
2017-05-12T10:49:07.793Z,19.64
2017-05-12T10:50:07.467Z,19.58
2017-05-12T10:51:08.313Z,19.51
2017-05-12T10:52:07.906Z,19.71
2017-05-12T10:53:07.561Z,19.90
2017-05-12T10:54:08.477Z,20.05
2017-05-12T10:55:08.290Z,20.08
2017-05-12T10:56:08.124Z,19.95
2017-05-12T10:57:07.807Z,19.87
2017-05-12T10:58:07.429Z,19.81
2017-05-12T10:59:08.120Z,19.63
2017-05-12T11:00:07.749Z,19.63
2017-05-12T11:01:07.362Z,19.77
2017-05-12T11:02:07.930Z,19.92
2017-05-12T11:03:07.530Z,20.18
2017-05-12T11:04:08.186Z,20.45
2017-05-12T11:05:08.694Z,20.46
2017-05-12T11:06:07.482Z,20.27
2017-05-12T11:07:08.111Z,20.25
2017-05-12T11:08:08.193Z,20.19
2017-05-12T11:09:08.676Z,19.99
2017-05-12T11:10:07.502Z,19.97
2017-05-12T11:11:08.160Z,19.98
2017-05-12T11:12:07.732Z,20.07
2017-05-12T11:13:07.360Z,20.03
2017-05-12T11:14:08.019Z,19.98
2017-05-12T11:15:07.710Z,19.89
2017-05-12T11:16:07.320Z,19.83
2017-05-12T11:17:08.113Z,19.73
2017-05-12T11:18:08.188Z,19.67
2017-05-12T11:19:07.963Z,19.53
2017-05-12T11:20:07.653Z,19.43
2017-05-12T11:21:07.387Z,19.34
2017-05-12T11:22:08.071Z,19.35
2017-05-12T11:23:07.735Z,19.36
2017-05-12T11:24:07.361Z,19.33
2017-05-12T11:25:07.981Z,19.27
2017-05-12T11:26:07.592Z,19.32
2017-05-12T11:27:07.210Z,19.43
2017-05-12T11:28:08.716Z,19.40
2017-05-12T11:29:07.319Z,19.48
2017-05-12T11:30:07.951Z,19.51
2017-05-12T11:31:08.434Z,19.55
2017-05-12T11:32:08.056Z,19.65
2017-05-12T11:33:07.734Z,19.76
2017-05-12T11:34:07.261Z,20.02
2017-05-12T11:35:07.801Z,20.02
2017-05-12T11:36:07.533Z,20.19
2017-05-12T11:37:08.168Z,20.34
2017-05-12T11:38:07.830Z,20.50
2017-05-12T11:39:07.413Z,20.33
2017-05-12T11:40:08.093Z,20.13
2017-05-12T11:41:07.717Z,19.85
2017-05-12T11:42:07.379Z,19.74
2017-05-12T11:43:08.040Z,19.69
2017-05-12T11:45:08.798Z,19.50
2017-05-12T11:46:08.331Z,19.47
2017-05-12T11:47:07.798Z,19.44
2017-05-12T11:48:08.194Z,19.36
2017-05-12T11:49:08.663Z,19.36
2017-05-12T11:50:07.292Z,19.38
2017-05-12T11:51:07.945Z,19.43
2017-05-12T11:52:08.444Z,19.44
2017-05-12T11:53:08.079Z,19.50
2017-05-12T11:54:09.085Z,19.45
2017-05-12T11:55:08.542Z,19.45
2017-05-12T11:56:09.004Z,19.46
2017-05-12T11:57:07.537Z,19.48
2017-05-12T11:58:07.217Z,19.51
2017-05-12T11:59:08.710Z,19.56
2017-05-12T12:00:08.163Z,19.59
2017-05-12T12:01:07.792Z,19.66
2017-05-12T12:02:07.772Z,19.73
2017-05-12T12:03:07.370Z,19.70
2017-05-12T12:04:08.030Z,19.63
2017-05-12T12:05:07.607Z,19.65
2017-05-12T12:06:07.214Z,19.73
2017-05-12T12:07:07.851Z,19.77
2017-05-12T12:08:07.485Z,19.76
2017-05-12T12:09:08.141Z,19.79
2017-05-12T12:10:07.805Z,19.80
2017-05-12T12:11:07.466Z,19.73
2017-05-12T12:12:08.132Z,19.73
2017-05-12T12:13:07.767Z,19.73
2017-05-12T12:14:07.516Z,19.67
2017-05-12T12:15:08.184Z,19.68
2017-05-12T12:16:07.851Z,19.75
2017-05-12T12:17:07.609Z,19.85
2017-05-12T12:18:07.283Z,19.69
2017-05-12T12:19:07.978Z,19.74
2017-05-12T12:20:07.543Z,19.64
2017-05-12T12:21:08.186Z,19.74
2017-05-12T12:22:07.781Z,19.67
2017-05-12T12:23:07.361Z,19.81
2017-05-12T12:24:08.075Z,19.89
2017-05-12T12:25:08.160Z,20.01
2017-05-12T12:26:07.755Z,20.10
2017-05-12T12:27:07.422Z,20.16
2017-05-12T12:28:08.097Z,20.26
2017-05-12T12:29:07.696Z,20.28
2017-05-12T12:30:07.376Z,20.35
2017-05-12T12:31:08.001Z,20.48
2017-05-12T12:32:07.663Z,20.49
2017-05-12T12:33:07.500Z,20.42
2017-05-12T12:35:07.877Z,20.35
2017-05-12T12:37:08.220Z,19.92
2017-05-12T12:38:07.890Z,19.95
2017-05-12T12:39:07.696Z,20.15
2017-05-12T12:40:07.302Z,20.31
2017-05-12T12:41:08.021Z,20.44
2017-05-12T12:43:08.608Z,20.65
2017-05-12T12:44:07.162Z,20.59
2017-05-12T12:45:07.837Z,20.57
2017-05-12T12:46:07.403Z,20.56
2017-05-12T12:47:08.061Z,20.50
2017-05-12T12:49:08.168Z,20.42
2017-05-12T12:50:08.619Z,20.46
2017-05-12T12:51:07.310Z,20.63
2017-05-12T12:52:07.940Z,20.82
2017-05-12T12:53:07.832Z,21.04
2017-05-12T12:54:07.457Z,21.10
2017-05-12T12:55:08.221Z,21.12
2017-05-12T12:56:07.912Z,20.93
2017-05-12T12:57:07.564Z,21.10
2017-05-12T13:00:07.816Z,21.47